Time;durP1;ratioP1;P1;durP2;ratioP2;P2;SDS_P1;SDS_P2;PMS_P1;PMS_P2;Temp;Humidity;BMP_temperature;BMP_pressure;BME280_temperature;BME280_humidity;BME280_pressure;Samples;Min_cycle;Max_cycle;Signal;HPM_P1;HPM_P2
2022/06/18 00:00:36;;;;;;;;;;;;;;;;;;1043928;28;3928;-50
2022/06/18 00:01:09;;;;;;;;;;;;;;;;;;1043282;28;3772;-51
2022/06/18 00:01:39;;;;;;;;;;;;;;;;;;1041999;28;2914;-50
2022/06/18 00:02:10;;;;;;;;;;;;;;;;;;1042624;28;4097;-52
2022/06/18 00:02:41;;;;;;;;;;;;;;;;;;1042823;28;3516;-49
2022/06/18 00:03:19;;;;;;;;;;;;;;;;;;1043279;28;3832;-51
2022/06/18 00:03:49;;;;;;;;;;;;;;;;;;1041610;28;2830;-51
2022/06/18 00:04:20;;;;;;;;;;;;;;;;;;1043415;28;3937;-50
2022/06/18 00:04:51;;;;;;;;;;;;;;;;;;1043734;28;3815;-49
2022/06/18 00:05:22;;;;;;;;;;;;;;;;;;1045004;28;2517;-46
2022/06/18 00:05:54;;;;;;;;;;;;;;;;;;1038739;28;3930;-48
2022/06/18 00:06:24;;;;;;;;;;;;;;;;;;1041145;28;2072;-52
2022/06/18 00:06:54;;;;;;;;;;;;;;;;;;1043738;28;3854;-50
2022/06/18 00:07:25;;;;;;;;;;;;;;;;;;1043268;28;3524;-51
2022/06/18 00:07:56;;;;;;;;;;;;;;;;;;1042467;28;4287;-52
2022/06/18 00:08:28;;;;;;;;;;;;;;;;;;1043951;28;3052;-53
2022/06/18 00:08:58;;;;;;;;;;;;;;;;;;1042227;28;4214;-51
2022/06/18 00:09:30;;;;;;;;;;;;;;;;;;1044317;28;2768;-51
2022/06/18 00:10:03;;;;;;;;;;;;;;;;;;1043508;28;4049;-51
2022/06/18 00:10:33;;;;;;;;;;;;;;;;;;1044302;28;3779;-52
2022/06/18 00:13:42;;;;;;;;;;;;;;;;;;1042406;28;3712;-50
2022/06/18 00:14:12;;;;;;;;;;;;;;;;;;1041741;28;4193;-49
2022/06/18 00:14:43;;;;;;;;;;;;;;;;;;1042147;28;4577;-49
2022/06/18 00:15:13;;;;;;;;;;;;;;;;;;1041197;28;3872;-50
2022/06/18 00:15:43;;;;;;;;;;;;;;;;;;1043148;28;3703;-51
2022/06/18 00:16:16;;;;;;;;;;;;;;;;;;1040944;28;4038;-48
2022/06/18 00:16:46;;;;;;;;;;;;;;;;;;1040908;28;1775;-50
2022/06/18 00:17:17;;;;;;;;;;;;;;;;;;1043135;28;3874;-48
2022/06/18 00:17:48;;;;;;;;;;;;;;;;;;1044783;28;3586;-49
2022/06/18 00:18:18;;;;;;;;;;;;;;;;;;1043125;28;3900;-52
2022/06/18 00:18:48;;;;;;;;;;;;;;;;;;1043704;28;3802;-49
2022/06/18 00:19:19;;;;;;;;;;;;;;;;;;1042801;28;3728;-49
2022/06/18 00:19:49;;;;;;;;;;;;;;;;;;1042766;28;3828;-53
2022/06/18 00:20:20;;;;;;;;;;;;;;;;;;1043805;28;4227;-48
2022/06/18 00:20:51;;;;;;;;;;;;;;;;;;1044508;28;3791;-49
2022/06/18 00:21:22;;;;;;;;;;;;;;;;;;1043346;28;2969;-51
2022/06/18 00:21:52;;;;;;;;;;;;;;;;;;1042806;28;3983;-50
2022/06/18 00:22:23;;;;;;;;;;;;;;;;;;1042024;28;3866;-50
2022/06/18 00:22:55;;;;;;;;;;;;;;;;;;1042545;28;3905;-50
2022/06/18 00:23:25;;;;;;;;;;;;;;;;;;1043879;28;3469;-48
2022/06/18 00:23:55;;;;;;;;;;;;;;;;;;1043673;28;3902;-48
2022/06/18 00:24:25;;;;;;;;;;;;;;;;;;1043875;28;3189;-49
2022/06/18 00:24:56;;;;;;;;;;;;;;;;;;1044034;28;3957;-48
2022/06/18 00:25:28;;;;;;;;;;;;;;;;;;1045379;28;2954;-51
2022/06/18 00:25:58;;;;;;;;;;;;;;;;;;1043397;28;4259;-49
2022/06/18 00:26:29;;;;;;;;;;;;;;;;;;1045368;28;2323;-50
2022/06/18 00:26:59;;;;;;;;;;;;;;;;;;1043067;28;3923;-49
2022/06/18 00:27:29;;;;;;;;;;;;;;;;;;1043795;28;2870;-48
2022/06/18 00:28:00;;;;;;;;;;;;;;;;;;1042799;28;3959;-52
2022/06/18 00:28:31;;;;;;;;;;;;;;;;;;1042878;28;2797;-50
2022/06/18 00:29:01;;;;;;;;;;;;;;;;;;1042544;28;3871;-52
2022/06/18 00:29:32;;;;;;;;;;;;;;;;;;1042979;28;3541;-50
2022/06/18 00:30:03;;;;;;;;;;;;;;;;;;1042626;28;3882;-51
2022/06/18 00:30:33;;;;;;;;;;;;;;;;;;1039415;28;2881;-49
2022/06/18 00:31:03;;;;;;;;;;;;;;;;;;1034101;28;4270;-50
2022/06/18 00:31:33;;;;;;;;;;;;;;;;;;1034617;28;2984;-49
2022/06/18 00:32:04;;;;;;;;;;;;;;;;;;1038945;28;4269;-51
2022/06/18 00:32:34;;;;;;;;;;;;;;;;;;1042581;28;3994;-48
2022/06/18 00:33:05;;;;;;;;;;;;;;;;;;1042409;28;3915;-50
2022/06/18 00:33:39;;;;;;;;;;;;;;;;;;1043832;28;2829;-50
2022/06/18 00:34:09;;;;;;;;;;;;;;;;;;1041831;28;4064;-52
2022/06/18 00:34:40;;;;;;;;;;;;;;;;;;1044604;28;1924;-49
2022/06/18 00:35:11;;;;;;;;;;;;;;;;;;1040811;28;3867;-51
2022/06/18 00:35:42;;;;;;;;;;;;;;;;;;1041292;28;2993;-49
2022/06/18 00:36:14;;;;;;;;;;;;;;;;;;1043837;28;4005;-50
2022/06/18 00:36:44;;;;;;;;;;;;;;;;;;1042376;28;3518;-50
2022/06/18 00:37:16;;;;;;;;;;;;;;;;;;1043727;28;3921;-49
2022/06/18 00:37:50;;;;;;;;;;;;;;;;;;1043397;28;4060;-49
2022/06/18 00:38:23;;;;;;;;;;;;;;;;;;1045411;28;3721;-50
2022/06/18 00:38:53;;;;;;;;;;;;;;;;;;1042463;28;3912;-50
2022/06/18 00:39:24;;;;;;;;;;;;;;;;;;1043768;28;3190;-52
2022/06/18 00:40:05;;;;;;;;;;;;;;;;;;1043554;28;4069;-51
2022/06/18 00:40:39;;;;;;;;;;;;;;;;;;1043575;28;3278;-53
2022/06/18 00:41:21;;;;;;;;;;;;;;;;;;1043777;28;3808;-50
2022/06/18 00:41:51;;;;;;;;;;;;;;;;;;1042512;28;4249;-52
2022/06/18 00:42:33;;;;;;;;;;;;;;;;;;1042184;28;3940;-51
2022/06/18 00:43:20;;;;;;;;;;;;;;;;;;1042563;28;4341;-51
2022/06/18 00:43:53;;;;;;;;;;;;;;;;;;1042317;28;3790;-49
2022/06/18 00:44:34;;;;;;;;;;;;;;;;;;1041604;28;3342;-52
2022/06/18 00:45:04;;;;;;;;;;;;;;;;;;1041031;28;4216;-52
2022/06/18 00:45:35;;;;;;;;;;;;;;;;;;1044910;28;2596;-51
2022/06/18 00:46:29;;;;;;;;;;;;;;;;;;1046777;28;4260;-51
2022/06/18 00:47:08;;;;;;;;;;;;;;;;;;1047304;28;4219;-52
2022/06/18 00:47:48;;;;;;;;;;;;;;;;;;1047349;28;4227;-49
2022/06/18 00:48:41;;;;;;;;;;;;;;;;;;1047589;28;3780;-51
2022/06/18 00:49:11;;;;;;;;;;;;;;;;;;1034653;28;3842;-50
2022/06/18 00:49:51;;;;;;;;;;;;;;;;;;1034566;28;3098;-50
2022/06/18 00:50:27;;;;;;;;;;;;;;;;;;1048596;28;3607;-51
2022/06/18 00:51:03;;;;;;;;;;;;;;;;;;1047054;28;3815;-52
2022/06/18 00:51:45;;;;;;;;;;;;;;;;;;1048015;28;2936;-51
2022/06/18 00:52:15;;;;;;;;;;;;;;;;;;1048885;28;3852;-51
2022/06/18 00:52:49;;;;;;;;;;;;;;;;;;1048027;28;3318;-51
2022/06/18 00:53:24;;;;;;;;;;;;;;;;;;1048201;28;3811;-51
2022/06/18 00:54:21;;;;;;;;;;;;;;;;;;1048774;28;4312;-50
2022/06/18 00:55:01;;;;;;;;;;;;;;;;;;1045575;28;4253;-50
2022/06/18 00:55:33;;;;;;;;;;;;;;;;;;1048842;28;3049;-52
2022/06/18 00:56:03;;;;;;;;;;;;;;;;;;1048828;28;4441;-51
2022/06/18 00:56:37;;;;;;;;;;;;;;;;;;1047054;28;3832;-51
2022/06/18 00:57:16;;;;;;;;;;;;;;;;;;1047578;28;3886;-48
2022/06/18 00:57:59;;;;;;;;;;;;;;;;;;1048739;28;3687;-51
2022/06/18 00:58:33;;;;;;;;;;;;;;;;;;1048499;28;3809;-51
2022/06/18 00:59:11;;;;;;;;;;;;;;;;;;1047879;28;3785;-49
2022/06/18 00:59:44;;;;;;;;;;;;;;;;;;1048592;28;2907;-51
2022/06/18 01:00:20;;;;;;;;;;;;;;;;;;1046585;28;3872;-50
2022/06/18 01:00:51;;;;;;;;;;;;;;;;;;1048644;28;4270;-51
2022/06/18 01:01:26;;;;;;;;;;;;;;;;;;1042825;28;2849;-51
2022/06/18 01:01:56;;;;;;;;;;;;;;;;;;1043350;28;4232;-51
2022/06/18 01:02:30;;;;;;;;;;;;;;;;;;1044195;28;2800;-49
2022/06/18 01:03:00;;;;;;;;;;;;;;;;;;1042772;28;4292;-53
2022/06/18 01:03:38;;;;;;;;;;;;;;;;;;1049543;28;1704;-51
2022/06/18 01:04:32;;;;;;;;;;;;;;;;;;1044075;28;4280;-50
2022/06/18 01:05:16;;;;;;;;;;;;;;;;;;1044366;28;4335;-51
2022/06/18 01:05:47;;;;;;;;;;;;;;;;;;1044972;28;3251;-53
2022/06/18 01:06:23;;;;;;;;;;;;;;;;;;1048034;28;3915;-50
2022/06/18 01:06:58;;;;;;;;;;;;;;;;;;1051153;28;3834;-50
2022/06/18 01:07:31;;;;;;;;;;;;;;;;;;1050404;28;3898;-50
2022/06/18 01:08:16;;;;;;;;;;;;;;;;;;1050812;28;3899;-52
2022/06/18 01:08:48;;;;;;;;;;;;;;;;;;1049885;28;3963;-52
2022/06/18 01:09:19;;;;;;;;;;;;;;;;;;1047000;28;3768;-51
2022/06/18 01:09:50;;;;;;;;;;;;;;;;;;1050033;28;2113;-49
2022/06/18 01:10:24;;;;;;;;;;;;;;;;;;1047282;28;3623;-51
2022/06/18 01:10:57;;;;;;;;;;;;;;;;;;1047373;28;3866;-54
2022/06/18 01:11:29;;;;;;;;;;;;;;;;;;1049065;28;2654;-49
2022/06/18 01:12:00;;;;;;;;;;;;;;;;;;1043233;28;4018;-51
2022/06/18 01:12:30;;;;;;;;;;;;;;;;;;1043837;28;2914;-50
2022/06/18 01:13:05;;;;;;;;;;;;;;;;;;1042309;28;3801;-49
2022/06/18 01:13:37;;;;;;;;;;;;;;;;;;1044033;28;2776;-50
2022/06/18 01:14:09;;;;;;;;;;;;;;;;;;1047565;28;3882;-51
2022/06/18 01:14:41;;;;;;;;;;;;;;;;;;1048951;28;2770;-48
2022/06/18 01:15:11;;;;;;;;;;;;;;;;;;1048378;28;4270;-50
2022/06/18 01:15:43;;;;;;;;;;;;;;;;;;1049505;28;2696;-53
2022/06/18 01:16:13;;;;;;;;;;;;;;;;;;1047933;28;3808;-50
2022/06/18 01:16:43;;;;;;;;;;;;;;;;;;1046305;28;3583;-51
2022/06/18 01:17:14;;;;;;;;;;;;;;;;;;1047150;28;4278;-47
2022/06/18 01:17:44;;;;;;;;;;;;;;;;;;1048025;28;4929;-50
2022/06/18 01:18:15;;;;;;;;;;;;;;;;;;1047455;28;3902;-53
2022/06/18 01:18:47;;;;;;;;;;;;;;;;;;1047908;28;2255;-54
2022/06/18 01:19:27;;;;;;;;;;;;;;;;;;1044022;28;3830;-52
2022/06/18 01:20:00;;;;;;;;;;;;;;;;;;1044179;28;4199;-49
2022/06/18 01:20:31;;;;;;;;;;;;;;;;;;1045280;28;2129;-50
2022/06/18 01:21:14;;;;;;;;;;;;;;;;;;1045519;28;5189;-50
2022/06/18 01:21:48;;;;;;;;;;;;;;;;;;1043671;28;2652;-48
2022/06/18 01:22:24;;;;;;;;;;;;;;;;;;1044039;28;3887;-49
2022/06/18 01:23:07;;;;;;;;;;;;;;;;;;1042481;28;3909;-51
2022/06/18 01:23:47;;;;;;;;;;;;;;;;;;1046405;28;3582;-51
2022/06/18 01:24:21;;;;;;;;;;;;;;;;;;1047903;28;3880;-50
2022/06/18 01:24:52;;;;;;;;;;;;;;;;;;1047895;28;3909;-48
2022/06/18 01:25:23;;;;;;;;;;;;;;;;;;1044691;28;3643;-50
2022/06/18 01:25:54;;;;;;;;;;;;;;;;;;1043607;28;3933;-50
2022/06/18 01:26:25;;;;;;;;;;;;;;;;;;1044096;28;3173;-50
2022/06/18 01:26:56;;;;;;;;;;;;;;;;;;1043271;28;3974;-48
2022/06/18 01:27:26;;;;;;;;;;;;;;;;;;1047675;28;3724;-49
2022/06/18 01:27:57;;;;;;;;;;;;;;;;;;1046071;28;3855;-50
2022/06/18 01:28:27;;;;;;;;;;;;;;;;;;1047523;28;3198;-50
2022/06/18 01:28:58;;;;;;;;;;;;;;;;;;1046583;28;3917;-50
2022/06/18 01:29:28;;;;;;;;;;;;;;;;;;1047995;28;3787;-47
2022/06/18 01:29:58;;;;;;;;;;;;;;;;;;1047339;28;3889;-52
2022/06/18 01:30:35;;;;;;;;;;;;;;;;;;1048588;28;2589;-49
2022/06/18 01:31:06;;;;;;;;;;;;;;;;;;1047650;28;4268;-51
2022/06/18 01:31:36;;;;;;;;;;;;;;;;;;1049423;28;1696;-50
2022/06/18 01:32:08;;;;;;;;;;;;;;;;;;1050432;28;3905;-48
2022/06/18 01:32:39;;;;;;;;;;;;;;;;;;1050235;28;4176;-52
2022/06/18 01:33:10;;;;;;;;;;;;;;;;;;1050521;27;3785;-48
2022/06/18 01:33:40;;;;;;;;;;;;;;;;;;1053224;28;1674;-49
2022/06/18 01:34:10;;;;;;;;;;;;;;;;;;1047109;28;4221;-49
2022/06/18 01:34:41;;;;;;;;;;;;;;;;;;1047716;28;3828;-52
2022/06/18 01:35:12;;;;;;;;;;;;;;;;;;1047213;28;4034;-50
2022/06/18 01:35:43;;;;;;;;;;;;;;;;;;1045903;28;4015;-50
2022/06/18 01:36:14;;;;;;;;;;;;;;;;;;1047379;28;4211;-49
2022/06/18 01:36:44;;;;;;;;;;;;;;;;;;1047627;28;2941;-48
2022/06/18 01:37:14;;;;;;;;;;;;;;;;;;1047161;28;4284;-51
2022/06/18 01:37:45;;;;;;;;;;;;;;;;;;1043761;28;3306;-49
2022/06/18 01:38:16;;;;;;;;;;;;;;;;;;1041436;28;4203;-51
2022/06/18 01:38:47;;;;;;;;;;;;;;;;;;1043738;28;3857;-49
2022/06/18 01:39:20;;;;;;;;;;;;;;;;;;1044183;28;4251;-49
2022/06/18 01:39:51;;;;;;;;;;;;;;;;;;1044322;28;3867;-52
2022/06/18 01:40:44;;;;;;;;;;;;;;;;;;1044625;28;2256;-48
2022/06/18 01:42:15;;;;;;;;;;;;;;;;;;1047229;28;3910;-52
2022/06/18 01:42:47;;;;;;;;;;;;;;;;;;1048777;28;2870;-50
2022/06/18 01:43:18;;;;;;;;;;;;;;;;;;1048358;28;3856;-50
2022/06/18 01:43:50;;;;;;;;;;;;;;;;;;1047800;28;2816;-51
2022/06/18 01:44:24;;;;;;;;;;;;;;;;;;1047322;28;3914;-50
2022/06/18 01:45:12;;;;;;;;;;;;;;;;;;1045629;28;4269;-49
2022/06/18 01:46:04;;;;;;;;;;;;;;;;;;1047077;28;3209;-50
2022/06/18 01:46:42;;;;;;;;;;;;;;;;;;1048550;28;3798;-51
2022/06/18 01:47:15;;;;;;;;;;;;;;;;;;1046874;28;3914;-50
2022/06/18 01:47:52;;;;;;;;;;;;;;;;;;1047637;28;3045;-50
2022/06/18 01:48:35;;;;;;;;;;;;;;;;;;1045742;28;3799;-49
2022/06/18 01:49:07;;;;;;;;;;;;;;;;;;1043311;28;4134;-48
2022/06/18 01:49:43;;;;;;;;;;;;;;;;;;1043456;28;3814;-48
2022/06/18 01:50:20;;;;;;;;;;;;;;;;;;1041163;28;3898;-50
2022/06/18 01:51:08;;;;;;;;;;;;;;;;;;1046044;28;3915;-51
2022/06/18 01:51:40;;;;;;;;;;;;;;;;;;1048090;28;2665;-49
2022/06/18 01:52:11;;;;;;;;;;;;;;;;;;1048568;28;3925;-48
2022/06/18 01:52:45;;;;;;;;;;;;;;;;;;1046790;28;4116;-50
2022/06/18 01:53:26;;;;;;;;;;;;;;;;;;1048607;28;4196;-50
2022/06/18 01:53:59;;;;;;;;;;;;;;;;;;1048140;28;3798;-50
2022/06/18 01:54:33;;;;;;;;;;;;;;;;;;1047986;28;3776;-52
2022/06/18 01:55:08;;;;;;;;;;;;;;;;;;1048895;28;3860;-48
2022/06/18 01:55:42;;;;;;;;;;;;;;;;;;1048999;28;1729;-50
2022/06/18 01:56:21;;;;;;;;;;;;;;;;;;1047391;28;4274;-48
2022/06/18 01:56:54;;;;;;;;;;;;;;;;;;1047168;28;3949;-55
2022/06/18 01:57:27;;;;;;;;;;;;;;;;;;1046772;28;2632;-49
2022/06/18 01:58:00;;;;;;;;;;;;;;;;;;1046009;28;3926;-48
2022/06/18 01:58:48;;;;;;;;;;;;;;;;;;1044614;28;2322;-51
2022/06/18 01:59:21;;;;;;;;;;;;;;;;;;1041921;28;3842;-48
2022/06/18 01:59:52;;;;;;;;;;;;;;;;;;1042674;28;4283;-48
2022/06/18 02:00:26;;;;;;;;;;;;;;;;;;1042427;28;3877;-49
2022/06/18 02:00:57;;;;;;;;;;;;;;;;;;1045360;28;4117;-48
2022/06/18 02:01:30;;;;;;;;;;;;;;;;;;1044669;28;3623;-50
2022/06/18 02:02:03;;;;;;;;;;;;;;;;;;1047438;28;3843;-52
2022/06/18 02:02:33;;;;;;;;;;;;;;;;;;1045061;28;2919;-53
2022/06/18 02:03:04;;;;;;;;;;;;;;;;;;1047086;28;3810;-51
2022/06/18 02:03:36;;;;;;;;;;;;;;;;;;1048919;28;2853;-48
2022/06/18 02:04:06;;;;;;;;;;;;;;;;;;1046213;28;3838;-49
2022/06/18 02:04:36;;;;;;;;;;;;;;;;;;1049316;28;2157;-50
2022/06/18 02:05:07;;;;;;;;;;;;;;;;;;1047277;28;3786;-49
2022/06/18 02:05:37;;;;;;;;;;;;;;;;;;1048010;28;3275;-52
2022/06/18 02:06:08;;;;;;;;;;;;;;;;;;1046783;28;3891;-50
2022/06/18 02:06:38;;;;;;;;;;;;;;;;;;1049844;28;1396;-49
2022/06/18 02:07:09;;;;;;;;;;;;;;;;;;1047318;28;3806;-50
2022/06/18 02:07:40;;;;;;;;;;;;;;;;;;1048749;28;2514;-50
2022/06/18 02:08:12;;;;;;;;;;;;;;;;;;1046766;28;4251;-48
2022/06/18 02:08:43;;;;;;;;;;;;;;;;;;1049991;28;1620;-52
2022/06/18 02:09:16;;;;;;;;;;;;;;;;;;1046933;28;3918;-50
2022/06/18 02:10:01;;;;;;;;;;;;;;;;;;1047763;28;3914;-52
2022/06/18 02:10:37;;;;;;;;;;;;;;;;;;1044997;28;4004;-52
2022/06/18 02:11:08;;;;;;;;;;;;;;;;;;1042973;28;4280;-48
2022/06/18 02:11:39;;;;;;;;;;;;;;;;;;1043805;28;2469;-48
2022/06/18 02:12:17;;;;;;;;;;;;;;;;;;1043110;28;3906;-49
2022/06/18 02:12:48;;;;;;;;;;;;;;;;;;1045311;28;3099;-52
2022/06/18 02:13:20;;;;;;;;;;;;;;;;;;1045907;28;3851;-51
2022/06/18 02:13:54;;;;;;;;;;;;;;;;;;1048079;28;2279;-51
2022/06/18 02:14:25;;;;;;;;;;;;;;;;;;1046609;28;3786;-50
2022/06/18 02:14:58;;;;;;;;;;;;;;;;;;1047714;28;4255;-51
2022/06/18 02:15:31;;;;;;;;;;;;;;;;;;1047904;28;2868;-48
2022/06/18 02:16:03;;;;;;;;;;;;;;;;;;1042790;28;3834;-49
2022/06/18 02:16:35;;;;;;;;;;;;;;;;;;1042637;28;4356;-50
2022/06/18 02:17:07;;;;;;;;;;;;;;;;;;1042438;28;3804;-50
2022/06/18 02:17:38;;;;;;;;;;;;;;;;;;1043712;28;3314;-52
2022/06/18 02:18:12;;;;;;;;;;;;;;;;;;1046950;28;3950;-50
2022/06/18 02:18:43;;;;;;;;;;;;;;;;;;1046941;28;4323;-52
2022/06/18 02:19:15;;;;;;;;;;;;;;;;;;1047484;28;3832;-51
2022/06/18 02:19:51;;;;;;;;;;;;;;;;;;1047925;28;3067;-51
2022/06/18 02:20:23;;;;;;;;;;;;;;;;;;1045096;28;3976;-50
2022/06/18 02:20:55;;;;;;;;;;;;;;;;;;1048850;28;4452;-49
2022/06/18 02:21:25;;;;;;;;;;;;;;;;;;1052884;28;1758;-49
2022/06/18 02:21:57;;;;;;;;;;;;;;;;;;1052553;28;3786;-50
2022/06/18 02:22:31;;;;;;;;;;;;;;;;;;1048250;28;2591;-48
2022/06/18 02:23:01;;;;;;;;;;;;;;;;;;1045541;28;4448;-54
2022/06/18 02:23:31;;;;;;;;;;;;;;;;;;1040345;28;1759;-49
2022/06/18 02:24:01;;;;;;;;;;;;;;;;;;1034830;28;3921;-51
2022/06/18 02:24:32;;;;;;;;;;;;;;;;;;1039925;28;2501;-49
2022/06/18 02:25:02;;;;;;;;;;;;;;;;;;1038713;28;3923;-47
2022/06/18 02:25:33;;;;;;;;;;;;;;;;;;1044435;28;2075;-53
2022/06/18 02:26:06;;;;;;;;;;;;;;;;;;1047616;28;3778;-50
2022/06/18 02:26:40;;;;;;;;;;;;;;;;;;1046796;28;3751;-53
2022/06/18 02:27:12;;;;;;;;;;;;;;;;;;1046400;28;3906;-52
2022/06/18 02:27:43;;;;;;;;;;;;;;;;;;1047893;28;2836;-52
2022/06/18 02:28:23;;;;;;;;;;;;;;;;;;1040196;28;3993;-51
2022/06/18 02:28:54;;;;;;;;;;;;;;;;;;1044733;28;3896;-49
2022/06/18 02:29:29;;;;;;;;;;;;;;;;;;1046064;28;2303;-48
2022/06/18 02:29:59;;;;;;;;;;;;;;;;;;1047167;28;4264;-48
2022/06/18 02:30:30;;;;;;;;;;;;;;;;;;1051232;27;3723;-50
2022/06/18 02:31:02;;;;;;;;;;;;;;;;;;1046050;28;4254;-51
2022/06/18 02:31:34;;;;;;;;;;;;;;;;;;1045672;28;3020;-49
2022/06/18 02:32:07;;;;;;;;;;;;;;;;;;1041051;28;4027;-50
2022/06/18 02:32:40;;;;;;;;;;;;;;;;;;1039969;28;3813;-51
2022/06/18 02:33:10;;;;;;;;;;;;;;;;;;1042949;28;3927;-49
2022/06/18 02:33:40;;;;;;;;;;;;;;;;;;1044239;28;3071;-53
2022/06/18 02:34:13;;;;;;;;;;;;;;;;;;1043170;28;3826;-51
2022/06/18 02:34:43;;;;;;;;;;;;;;;;;;1047433;28;5913;-50
2022/06/18 02:35:14;;;;;;;;;;;;;;;;;;1048292;28;4186;-48
2022/06/18 02:35:45;;;;;;;;;;;;;;;;;;1046074;28;6613;-52
2022/06/18 02:36:20;;;;;;;;;;;;;;;;;;1043875;28;3800;-49
2022/06/18 02:36:50;;;;;;;;;;;;;;;;;;1038486;28;2854;-49
2022/06/18 02:37:25;;;;;;;;;;;;;;;;;;1038790;28;3885;-51
2022/06/18 02:37:56;;;;;;;;;;;;;;;;;;1037405;28;3859;-49
2022/06/18 02:38:26;;;;;;;;;;;;;;;;;;1041054;28;3357;-49
2022/06/18 02:38:58;;;;;;;;;;;;;;;;;;1045017;28;3798;-52
2022/06/18 02:39:28;;;;;;;;;;;;;;;;;;1047041;28;2941;-49
2022/06/18 02:40:00;;;;;;;;;;;;;;;;;;1043052;28;3916;-50
2022/06/18 02:40:31;;;;;;;;;;;;;;;;;;1041532;28;3734;-51
2022/06/18 02:41:01;;;;;;;;;;;;;;;;;;1039505;28;4269;-50
2022/06/18 02:41:31;;;;;;;;;;;;;;;;;;1041599;28;1821;-48
2022/06/18 02:42:06;;;;;;;;;;;;;;;;;;1042919;28;3959;-54
2022/06/18 02:42:37;;;;;;;;;;;;;;;;;;1044517;28;1684;-53
2022/06/18 02:43:07;;;;;;;;;;;;;;;;;;1046806;28;3805;-48
2022/06/18 02:43:39;;;;;;;;;;;;;;;;;;1047364;28;2472;-52
2022/06/18 02:44:10;;;;;;;;;;;;;;;;;;1042468;28;4288;-49
2022/06/18 02:44:42;;;;;;;;;;;;;;;;;;1043129;28;2847;-50
2022/06/18 02:45:12;;;;;;;;;;;;;;;;;;1040754;28;4298;-49
2022/06/18 02:45:57;;;;;;;;;;;;;;;;;;1041088;28;3121;-50
2022/06/18 02:46:34;;;;;;;;;;;;;;;;;;1041945;28;3788;-49
2022/06/18 02:47:06;;;;;;;;;;;;;;;;;;1043293;28;4266;-51
2022/06/18 02:47:37;;;;;;;;;;;;;;;;;;1043538;28;2890;-51
2022/06/18 02:48:09;;;;;;;;;;;;;;;;;;1042860;28;4221;-49
2022/06/18 02:48:40;;;;;;;;;;;;;;;;;;1044293;28;1498;-51
2022/06/18 02:49:11;;;;;;;;;;;;;;;;;;1043027;28;3897;-50
2022/06/18 02:49:45;;;;;;;;;;;;;;;;;;1042332;28;3229;-49
2022/06/18 02:50:17;;;;;;;;;;;;;;;;;;1041939;28;5102;-48
2022/06/18 02:50:55;;;;;;;;;;;;;;;;;;1042995;28;3866;-52
2022/06/18 02:51:25;;;;;;;;;;;;;;;;;;1042677;28;3808;-54
2022/06/18 02:51:55;;;;;;;;;;;;;;;;;;1042840;28;4208;-52
2022/06/18 02:52:29;;;;;;;;;;;;;;;;;;1043434;28;3915;-52
2022/06/18 02:53:02;;;;;;;;;;;;;;;;;;1041914;28;3930;-51
2022/06/18 02:53:32;;;;;;;;;;;;;;;;;;1044491;28;2954;-51
2022/06/18 02:54:03;;;;;;;;;;;;;;;;;;1043932;28;4403;-49
2022/06/18 02:54:33;;;;;;;;;;;;;;;;;;1043941;28;2910;-50
2022/06/18 02:55:08;;;;;;;;;;;;;;;;;;1048612;28;4077;-50
2022/06/18 02:55:40;;;;;;;;;;;;;;;;;;1048377;28;2972;-51
2022/06/18 02:56:12;;;;;;;;;;;;;;;;;;1048030;28;3884;-49
2022/06/18 02:56:43;;;;;;;;;;;;;;;;;;1044472;28;3908;-53
2022/06/18 02:57:19;;;;;;;;;;;;;;;;;;1042297;28;3950;-52
2022/06/18 02:57:50;;;;;;;;;;;;;;;;;;1051787;28;2970;-49
2022/06/18 02:58:23;;;;;;;;;;;;;;;;;;1049791;28;3679;-51
2022/06/18 02:58:53;;;;;;;;;;;;;;;;;;1052201;28;3777;-53
2022/06/18 02:59:23;;;;;;;;;;;;;;;;;;1050802;28;3228;-49
2022/06/18 02:59:54;;;;;;;;;;;;;;;;;;1045078;28;4367;-50
2022/06/18 03:00:24;;;;;;;;;;;;;;;;;;1044271;28;2259;-50
2022/06/18 03:01:05;;;;;;;;;;;;;;;;;;1042701;28;4409;-50
2022/06/18 03:01:35;;;;;;;;;;;;;;;;;;1043452;28;3010;-52
2022/06/18 03:02:05;;;;;;;;;;;;;;;;;;1044341;28;4207;-50
2022/06/18 03:02:35;;;;;;;;;;;;;;;;;;1044830;28;2216;-48
2022/06/18 03:03:07;;;;;;;;;;;;;;;;;;1042083;28;4348;-49
2022/06/18 03:03:39;;;;;;;;;;;;;;;;;;1044283;28;2804;-50
2022/06/18 03:04:09;;;;;;;;;;;;;;;;;;1042565;28;3878;-48
2022/06/18 03:04:40;;;;;;;;;;;;;;;;;;1042839;28;2347;-48
2022/06/18 03:05:17;;;;;;;;;;;;;;;;;;1042784;28;4294;-51
2022/06/18 03:05:48;;;;;;;;;;;;;;;;;;1042496;28;3663;-52
2022/06/18 03:06:20;;;;;;;;;;;;;;;;;;1040535;28;4136;-51
2022/06/18 03:06:50;;;;;;;;;;;;;;;;;;1043152;28;3861;-50
2022/06/18 03:07:20;;;;;;;;;;;;;;;;;;1043547;28;2138;-52
2022/06/18 03:07:51;;;;;;;;;;;;;;;;;;1044513;28;3890;-51
2022/06/18 03:08:22;;;;;;;;;;;;;;;;;;1042856;28;2775;-50
2022/06/18 03:08:53;;;;;;;;;;;;;;;;;;1043704;28;4039;-52
2022/06/18 03:09:23;;;;;;;;;;;;;;;;;;1043066;28;3025;-52
2022/06/18 03:12:21;;;;;;;;;;;;;;;;;;1042156;28;3860;-49
2022/06/18 03:12:51;;;;;;;;;;;;;;;;;;1041768;28;4164;-51
2022/06/18 03:13:22;;;;;;;;;;;;;;;;;;1043518;28;2862;-52
2022/06/18 03:13:54;;;;;;;;;;;;;;;;;;1043008;28;4278;-53
2022/06/18 03:14:24;;;;;;;;;;;;;;;;;;1043694;28;2636;-50
2022/06/18 03:14:55;;;;;;;;;;;;;;;;;;1042553;28;4072;-54
2022/06/18 03:15:25;;;;;;;;;;;;;;;;;;1042755;28;3269;-48
2022/06/18 03:15:56;;;;;;;;;;;;;;;;;;1043547;28;4275;-49
2022/06/18 03:16:26;;;;;;;;;;;;;;;;;;1044912;28;2186;-51
2022/06/18 03:16:57;;;;;;;;;;;;;;;;;;1043979;28;3804;-49
2022/06/18 03:17:27;;;;;;;;;;;;;;;;;;1043889;28;2203;-52
2022/06/18 03:17:58;;;;;;;;;;;;;;;;;;1044060;28;3937;-51
2022/06/18 03:18:29;;;;;;;;;;;;;;;;;;1042985;28;2427;-53
2022/06/18 03:19:01;;;;;;;;;;;;;;;;;;1044230;28;4124;-49
2022/06/18 03:19:57;;;;;;;;;;;;;;;;;;1043649;28;2946;-52
2022/06/18 03:20:37;;;;;;;;;;;;;;;;;;1041624;28;3823;-51
2022/06/18 03:21:20;;;;;;;;;;;;;;;;;;1043202;28;3938;-52
2022/06/18 03:21:51;;;;;;;;;;;;;;;;;;1049508;28;4469;-48
2022/06/18 03:22:21;;;;;;;;;;;;;;;;;;1052298;28;1983;-48
2022/06/18 03:22:52;;;;;;;;;;;;;;;;;;1051982;28;3968;-51
2022/06/18 03:23:23;;;;;;;;;;;;;;;;;;1049613;28;3119;-50
2022/06/18 03:23:53;;;;;;;;;;;;;;;;;;1042581;28;4210;-52
2022/06/18 03:24:24;;;;;;;;;;;;;;;;;;1045674;28;2914;-51
2022/06/18 03:24:54;;;;;;;;;;;;;;;;;;1045216;28;3900;-52
2022/06/18 03:25:24;;;;;;;;;;;;;;;;;;1044050;28;3122;-50
2022/06/18 03:25:54;;;;;;;;;;;;;;;;;;1043892;28;3984;-50
2022/06/18 03:26:25;;;;;;;;;;;;;;;;;;1043859;28;3047;-50
2022/06/18 03:26:55;;;;;;;;;;;;;;;;;;1044111;28;3979;-51
2022/06/18 03:27:25;;;;;;;;;;;;;;;;;;1043463;28;4120;-51
2022/06/18 03:27:56;;;;;;;;;;;;;;;;;;1041689;28;3892;-53
2022/06/18 03:28:26;;;;;;;;;;;;;;;;;;1043285;28;2271;-50
2022/06/18 03:28:57;;;;;;;;;;;;;;;;;;1043225;28;4114;-49
2022/06/18 03:29:27;;;;;;;;;;;;;;;;;;1043600;28;2794;-50
2022/06/18 03:29:57;;;;;;;;;;;;;;;;;;1042940;28;4028;-52
2022/06/18 03:30:28;;;;;;;;;;;;;;;;;;1044331;28;3836;-51
2022/06/18 03:30:59;;;;;;;;;;;;;;;;;;1044443;28;4109;-49
2022/06/18 03:31:29;;;;;;;;;;;;;;;;;;1045238;28;3410;-50
2022/06/18 03:32:03;;;;;;;;;;;;;;;;;;1039574;28;3906;-51
2022/06/18 03:32:33;;;;;;;;;;;;;;;;;;1042879;28;2891;-53
2022/06/18 03:33:04;;;;;;;;;;;;;;;;;;1042850;28;4258;-50
2022/06/18 03:33:34;;;;;;;;;;;;;;;;;;1044331;28;2662;-48
2022/06/18 03:34:04;;;;;;;;;;;;;;;;;;1042612;28;4949;-50
2022/06/18 03:34:35;;;;;;;;;;;;;;;;;;1052897;28;3983;-49
2022/06/18 03:35:06;;;;;;;;;;;;;;;;;;1048832;28;4165;-50
2022/06/18 03:35:37;;;;;;;;;;;;;;;;;;1049271;28;3311;-49
2022/06/18 03:36:09;;;;;;;;;;;;;;;;;;1049864;28;3823;-48
2022/06/18 03:36:40;;;;;;;;;;;;;;;;;;1044076;28;2650;-51
2022/06/18 03:37:10;;;;;;;;;;;;;;;;;;1042163;28;3846;-48
2022/06/18 03:37:40;;;;;;;;;;;;;;;;;;1045309;28;1711;-49
2022/06/18 03:38:11;;;;;;;;;;;;;;;;;;1040694;28;4953;-49
2022/06/18 03:38:42;;;;;;;;;;;;;;;;;;1043452;28;2833;-51
2022/06/18 03:39:12;;;;;;;;;;;;;;;;;;1041413;28;3945;-47
2022/06/18 03:39:42;;;;;;;;;;;;;;;;;;1045566;28;2000;-49
2022/06/18 03:40:13;;;;;;;;;;;;;;;;;;1043506;28;4020;-51
2022/06/18 03:40:44;;;;;;;;;;;;;;;;;;1044277;28;1125;-52
2022/06/18 03:41:15;;;;;;;;;;;;;;;;;;1042790;28;3900;-50
2022/06/18 03:41:45;;;;;;;;;;;;;;;;;;1044104;28;2522;-48
2022/06/18 03:42:15;;;;;;;;;;;;;;;;;;1044448;28;4188;-51
2022/06/18 03:42:45;;;;;;;;;;;;;;;;;;1045238;28;1555;-49
2022/06/18 03:43:16;;;;;;;;;;;;;;;;;;1042451;28;3892;-53
2022/06/18 03:43:46;;;;;;;;;;;;;;;;;;1041296;28;4156;-51
2022/06/18 03:44:16;;;;;;;;;;;;;;;;;;1045134;28;3896;-48
2022/06/18 03:44:47;;;;;;;;;;;;;;;;;;1042807;28;6180;-50
2022/06/18 03:45:17;;;;;;;;;;;;;;;;;;1040233;28;3898;-53
2022/06/18 03:46:05;;;;;;;;;;;;;;;;;;1040404;28;2910;-51
2022/06/18 03:46:43;;;;;;;;;;;;;;;;;;1040340;28;4211;-51
2022/06/18 03:47:13;;;;;;;;;;;;;;;;;;1043402;28;4232;-50
2022/06/18 03:47:44;;;;;;;;;;;;;;;;;;1044063;28;3120;-48
2022/06/18 03:48:23;;;;;;;;;;;;;;;;;;1043168;28;4539;-49
2022/06/18 03:48:54;;;;;;;;;;;;;;;;;;1044216;28;4236;-49
2022/06/18 03:49:26;;;;;;;;;;;;;;;;;;1041285;28;4218;-53
2022/06/18 03:49:57;;;;;;;;;;;;;;;;;;1041788;28;4187;-53
2022/06/18 03:50:27;;;;;;;;;;;;;;;;;;1042607;28;4094;-52
2022/06/18 03:51:04;;;;;;;;;;;;;;;;;;1043466;28;3932;-51
2022/06/18 03:51:34;;;;;;;;;;;;;;;;;;1043792;28;1703;-48
2022/06/18 03:52:07;;;;;;;;;;;;;;;;;;1043135;28;3945;-50
2022/06/18 03:52:37;;;;;;;;;;;;;;;;;;1040340;28;4112;-52
2022/06/18 03:53:08;;;;;;;;;;;;;;;;;;1041434;28;3961;-48
2022/06/18 03:53:39;;;;;;;;;;;;;;;;;;1037958;28;3523;-51
2022/06/18 03:54:09;;;;;;;;;;;;;;;;;;1039981;28;4754;-48